createdAt,value
2018-04-17T00:00:17.128Z,89.4
2018-04-17T00:01:17.159Z,89.2
2018-04-17T00:02:16.473Z,89.0
2018-04-17T00:03:16.735Z,89.0
2018-04-17T00:04:16.990Z,89.0
2018-04-17T00:05:16.265Z,88.9
2018-04-17T00:06:16.531Z,89.0
2018-04-17T00:07:16.791Z,89.1
2018-04-17T00:08:17.056Z,89.2
2018-04-17T00:09:16.318Z,89.2
2018-04-17T00:10:16.586Z,89.3
2018-04-17T00:11:16.641Z,89.5
2018-04-17T00:12:16.902Z,89.6
2018-04-17T00:13:17.166Z,89.8
2018-04-17T00:14:16.428Z,89.7
2018-04-17T00:15:16.696Z,89.7
2018-04-17T00:16:16.964Z,90.0
2018-04-17T00:17:17.228Z,90.0
2018-04-17T00:18:16.492Z,90.0
2018-04-17T00:19:16.752Z,90.0
2018-04-17T00:20:17.020Z,90.0
2018-04-17T00:21:17.390Z,90.0
2018-04-17T00:22:16.657Z,90.2
2018-04-17T00:23:16.916Z,90.2
2018-04-17T00:24:17.176Z,90.2
2018-04-17T00:25:16.446Z,89.8
2018-04-17T00:26:16.720Z,89.8
2018-04-17T00:27:16.983Z,89.8
2018-04-17T00:28:17.244Z,89.7
2018-04-17T00:29:16.511Z,89.7
2018-04-17T00:30:16.793Z,89.7
2018-04-17T00:31:16.827Z,89.5
2018-04-17T00:32:17.083Z,89.3
2018-04-17T00:33:16.351Z,89.3
2018-04-17T00:34:16.623Z,89.5
2018-04-17T00:35:16.884Z,89.5
2018-04-17T00:36:17.158Z,89.7
2018-04-17T00:37:16.424Z,89.7
2018-04-17T00:38:16.741Z,89.8
2018-04-17T00:39:17.009Z,90.0
2018-04-17T00:40:16.277Z,89.8
2018-04-17T00:41:16.329Z,90.0
2018-04-17T00:42:16.583Z,90.0
2018-04-17T00:43:16.850Z,90.0
2018-04-17T00:44:17.114Z,90.2
2018-04-17T00:45:16.372Z,90.3
2018-04-17T00:46:16.637Z,90.0
2018-04-17T00:47:16.898Z,90.0
2018-04-17T00:48:17.157Z,90.0
2018-04-17T00:49:16.420Z,90.1
2018-04-17T00:50:16.683Z,90.8
2018-04-17T00:51:16.741Z,90.8
2018-04-17T00:52:17.002Z,90.8
2018-04-17T00:53:16.266Z,90.7
2018-04-17T00:54:16.530Z,90.6
2018-04-17T00:55:16.795Z,90.7
2018-04-17T00:56:17.345Z,90.7
2018-04-17T00:57:16.615Z,90.8
2018-04-17T00:58:16.889Z,90.8
2018-04-17T00:59:17.153Z,90.8
2018-04-17T01:00:16.420Z,90.8
2018-04-17T01:01:16.479Z,90.8
2018-04-17T01:02:16.757Z,90.8
2018-04-17T01:03:17.013Z,90.8
2018-04-17T01:04:16.270Z,90.8
2018-04-17T01:05:16.540Z,90.8
2018-04-17T01:06:16.800Z,90.8
2018-04-17T01:07:17.071Z,91.0
2018-04-17T01:08:16.328Z,91.0
2018-04-17T01:09:16.591Z,90.9
2018-04-17T01:10:16.863Z,90.8
2018-04-17T01:11:16.912Z,90.8
2018-04-17T01:12:17.177Z,91.0
2018-04-17T01:13:16.440Z,91.1
2018-04-17T01:14:16.717Z,91.1
2018-04-17T01:15:16.984Z,91.2
2018-04-17T01:16:17.278Z,91.0
2018-04-17T01:17:16.542Z,91.0
2018-04-17T01:18:17.184Z,91.1
2018-04-17T01:19:16.447Z,91.2
2018-04-17T01:20:16.711Z,91.2
2018-04-17T01:21:16.744Z,91.2
2018-04-17T01:22:17.009Z,91.3
2018-04-17T01:23:16.326Z,91.5
2018-04-17T01:24:16.599Z,91.5
2018-04-17T01:25:16.873Z,91.5
2018-04-17T01:26:17.154Z,91.9
2018-04-17T01:27:16.422Z,92.0
2018-04-17T01:28:16.689Z,92.0
2018-04-17T01:29:16.953Z,92.2
2018-04-17T01:30:17.224Z,92.2
2018-04-17T01:31:16.264Z,92.2
2018-04-17T01:32:16.547Z,92.2
2018-04-17T01:33:16.805Z,92.2
2018-04-17T01:34:17.069Z,92.2
2018-04-17T01:35:16.325Z,92.3
2018-04-17T01:36:16.592Z,92.3
2018-04-17T01:37:16.858Z,92.3
2018-04-17T01:38:17.135Z,92.3
2018-04-17T01:39:16.396Z,92.3
2018-04-17T01:40:16.675Z,92.2
2018-04-17T01:41:16.701Z,92.2
2018-04-17T01:42:16.965Z,92.2
2018-04-17T01:43:17.226Z,92.3
2018-04-17T01:44:16.486Z,92.3
2018-04-17T01:45:16.749Z,92.3
2018-04-17T01:46:17.012Z,92.4
2018-04-17T01:47:16.269Z,92.4
2018-04-17T01:48:16.524Z,92.5
2018-04-17T01:49:16.782Z,92.5
2018-04-17T01:50:17.051Z,92.5
2018-04-17T01:51:17.094Z,92.5
2018-04-17T01:52:16.352Z,92.5
2018-04-17T01:53:16.613Z,92.5
2018-04-17T01:54:16.886Z,92.4
2018-04-17T01:55:17.151Z,92.4
2018-04-17T01:56:16.599Z,92.4
2018-04-17T01:57:16.871Z,92.4
2018-04-17T01:58:17.138Z,92.4
2018-04-17T01:59:16.396Z,92.4
2018-04-17T02:00:16.678Z,92.4
2018-04-17T02:01:17.058Z,92.3
2018-04-17T02:02:16.321Z,92.4
2018-04-17T02:03:16.584Z,92.5
2018-04-17T02:04:16.851Z,92.5
2018-04-17T02:05:17.119Z,92.5
2018-04-17T02:06:16.388Z,92.5
2018-04-17T02:07:16.654Z,92.5
2018-04-17T02:08:17.030Z,92.5
2018-04-17T02:09:16.290Z,92.5
2018-04-17T02:10:16.550Z,92.6
2018-04-17T02:11:16.595Z,92.6
2018-04-17T02:12:16.856Z,92.7
2018-04-17T02:13:17.105Z,92.5
2018-04-17T02:14:16.374Z,92.3
2018-04-17T02:15:16.644Z,92.3
2018-04-17T02:16:16.911Z,92.3
2018-04-17T02:17:17.177Z,92.3
2018-04-17T02:18:16.440Z,92.4
2018-04-17T02:19:16.708Z,92.5
2018-04-17T02:20:16.969Z,92.5
2018-04-17T02:21:17.035Z,92.5
2018-04-17T02:22:16.304Z,92.3
2018-04-17T02:23:16.564Z,92.3
2018-04-17T02:24:16.834Z,92.2
2018-04-17T02:25:17.092Z,92.2
2018-04-17T02:26:16.363Z,92.2
2018-04-17T02:27:16.647Z,92.2
2018-04-17T02:28:16.922Z,92.2
2018-04-17T02:29:17.491Z,92.2
2018-04-17T02:30:16.989Z,92.2
2018-04-17T02:31:16.809Z,92.0
2018-04-17T02:32:17.076Z,92.0
2018-04-17T02:33:16.334Z,91.8
2018-04-17T02:34:16.596Z,91.7
2018-04-17T02:35:16.860Z,91.7
2018-04-17T02:36:17.145Z,91.5
2018-04-17T02:37:16.414Z,91.5
2018-04-17T02:38:16.682Z,91.5
2018-04-17T02:39:16.947Z,91.5
2018-04-17T02:40:17.213Z,91.6
2018-04-17T02:41:17.249Z,91.7
2018-04-17T02:42:16.502Z,91.7
2018-04-17T02:43:16.762Z,91.7
2018-04-17T02:44:17.020Z,91.7
2018-04-17T02:45:16.290Z,91.7
2018-04-17T02:46:16.556Z,91.8
2018-04-17T02:47:16.824Z,92.0
2018-04-17T02:48:17.065Z,92.0
2018-04-17T02:49:16.332Z,92.0
2018-04-17T02:50:16.603Z,92.2
2018-04-17T02:51:16.652Z,92.2
2018-04-17T02:52:16.915Z,92.2
2018-04-17T02:53:17.206Z,92.2
2018-04-17T02:54:16.485Z,92.2
2018-04-17T02:55:16.759Z,92.2
2018-04-17T02:56:17.024Z,92.3
2018-04-17T02:57:16.292Z,92.3
2018-04-17T02:58:16.561Z,92.3
2018-04-17T02:59:16.821Z,92.4
2018-04-17T03:00:17.086Z,92.4
2018-04-17T03:01:17.122Z,92.3
2018-04-17T03:02:16.394Z,92.3
2018-04-17T03:03:16.671Z,92.3
2018-04-17T03:04:16.938Z,92.3
2018-04-17T03:05:17.532Z,92.3
2018-04-17T03:06:16.797Z,92.3
2018-04-17T03:07:17.055Z,92.3
2018-04-17T03:08:16.321Z,92.3
2018-04-17T03:09:16.583Z,92.2
2018-04-17T03:10:16.857Z,92.2
2018-04-17T03:11:16.910Z,92.1
2018-04-17T03:12:17.169Z,92.2
2018-04-17T03:13:16.430Z,92.2
2018-04-17T03:14:16.689Z,92.2
2018-04-17T03:15:16.952Z,92.2
2018-04-17T03:16:17.226Z,92.2
2018-04-17T03:17:16.489Z,92.2
2018-04-17T03:18:16.750Z,92.5
2018-04-17T03:19:17.013Z,92.4
2018-04-17T03:20:16.292Z,92.4
2018-04-17T03:21:16.318Z,92.3
2018-04-17T03:22:16.581Z,92.4
2018-04-17T03:23:16.843Z,92.3
2018-04-17T03:24:17.105Z,92.3
2018-04-17T03:25:16.375Z,92.3
2018-04-17T03:26:16.637Z,92.3
2018-04-17T03:27:16.896Z,92.3
2018-04-17T03:28:17.156Z,92.3
2018-04-17T03:29:16.421Z,92.2
2018-04-17T03:30:16.713Z,92.2
2018-04-17T03:31:16.738Z,92.2
2018-04-17T03:32:17.009Z,92.2
2018-04-17T03:33:16.279Z,92.2
2018-04-17T03:34:16.540Z,92.2
2018-04-17T03:35:16.805Z,92.2
2018-04-17T03:36:17.074Z,92.2
2018-04-17T03:37:16.340Z,92.2
2018-04-17T03:38:16.605Z,92.3
2018-04-17T03:39:16.869Z,92.3
2018-04-17T03:40:17.129Z,92.3
2018-04-17T03:41:17.177Z,92.3
2018-04-17T03:42:16.443Z,92.4
2018-04-17T03:43:16.706Z,92.4
2018-04-17T03:44:16.961Z,92.5
2018-04-17T03:45:17.224Z,92.5
2018-04-17T03:46:16.491Z,92.5
2018-04-17T03:47:16.746Z,92.5
2018-04-17T03:48:17.002Z,92.4
2018-04-17T03:49:16.264Z,92.4
2018-04-17T03:50:16.530Z,92.4
2018-04-17T03:51:16.574Z,92.4
2018-04-17T03:52:16.838Z,92.3
2018-04-17T03:53:17.097Z,92.3
2018-04-17T03:54:16.365Z,92.3
2018-04-17T03:55:16.631Z,92.3
2018-04-17T03:56:16.915Z,92.3
2018-04-17T03:57:17.184Z,92.2
2018-04-17T03:58:16.449Z,92.2
2018-04-17T03:59:16.712Z,92.1
2018-04-17T04:00:16.976Z,92.0
2018-04-17T04:01:17.024Z,92.0
2018-04-17T04:02:16.302Z,92.0
2018-04-17T04:03:16.570Z,91.7
2018-04-17T04:04:16.840Z,91.8
2018-04-17T04:05:17.100Z,91.6
2018-04-17T04:06:16.418Z,91.7
2018-04-17T04:07:16.681Z,91.7
2018-04-17T04:08:16.951Z,91.7
2018-04-17T04:09:17.213Z,91.8
2018-04-17T04:10:16.479Z,91.8
2018-04-17T04:11:16.530Z,92.0
2018-04-17T04:12:16.785Z,92.0
2018-04-17T04:13:17.058Z,92.0
2018-04-17T04:14:16.323Z,91.8
2018-04-17T04:15:16.588Z,91.8
2018-04-17T04:16:17.010Z,91.7
2018-04-17T04:17:16.325Z,92.0
2018-04-17T04:18:16.590Z,92.0
2018-04-17T04:19:16.861Z,92.0
2018-04-17T04:20:17.134Z,92.2
2018-04-17T04:21:17.178Z,92.2
2018-04-17T04:22:16.434Z,92.3
2018-04-17T04:23:16.695Z,92.5
2018-04-17T04:24:16.954Z,92.6
2018-04-17T04:25:17.215Z,92.5
2018-04-17T04:26:16.480Z,92.1
2018-04-17T04:27:16.746Z,92.0
2018-04-17T04:28:17.005Z,91.8
2018-04-17T04:29:16.269Z,91.7
2018-04-17T04:30:16.530Z,91.7
2018-04-17T04:31:16.583Z,91.6
2018-04-17T04:32:16.848Z,91.5
2018-04-17T04:33:17.107Z,92.0
2018-04-17T04:34:16.371Z,91.6
2018-04-17T04:35:16.637Z,91.7
2018-04-17T04:36:16.904Z,92.2
2018-04-17T04:37:17.169Z,92.2
2018-04-17T04:38:16.446Z,92.2
2018-04-17T04:39:16.709Z,92.2
2018-04-17T04:40:16.986Z,92.2
2018-04-17T04:41:17.037Z,92.2
2018-04-17T04:42:16.311Z,92.1
2018-04-17T04:43:16.575Z,92.2
2018-04-17T04:44:16.841Z,92.2
2018-04-17T04:45:17.108Z,92.2
2018-04-17T04:46:16.512Z,92.2
2018-04-17T04:47:16.782Z,92.2
2018-04-17T04:48:17.045Z,92.2
2018-04-17T04:49:16.312Z,92.2
2018-04-17T04:50:16.573Z,92.3
2018-04-17T04:51:16.626Z,92.3
2018-04-17T04:52:16.900Z,92.2
2018-04-17T04:53:17.172Z,92.2
2018-04-17T04:54:16.430Z,92.2
2018-04-17T04:55:16.703Z,92.1
2018-04-17T04:56:16.968Z,92.0
2018-04-17T04:57:17.234Z,92.0
2018-04-17T04:58:16.491Z,91.8
2018-04-17T04:59:16.768Z,91.9
2018-04-17T05:00:17.046Z,91.9
2018-04-17T05:01:17.072Z,91.9
2018-04-17T05:02:16.340Z,91.8
2018-04-17T05:03:16.611Z,91.9
2018-04-17T05:04:16.891Z,92.0
2018-04-17T05:05:17.152Z,92.0
2018-04-17T05:06:16.427Z,92.0
2018-04-17T05:07:16.685Z,91.5
2018-04-17T05:08:16.963Z,91.5
2018-04-17T05:09:17.233Z,91.5
2018-04-17T05:10:16.507Z,91.2
2018-04-17T05:11:16.547Z,91.0
2018-04-17T05:12:16.801Z,90.7
2018-04-17T05:13:17.058Z,90.7
2018-04-17T05:14:16.316Z,90.5
2018-04-17T05:15:16.581Z,90.4
2018-04-17T05:16:16.858Z,90.7
2018-04-17T05:17:17.122Z,90.8
2018-04-17T05:18:16.387Z,90.2
2018-04-17T05:19:16.652Z,90.0
2018-04-17T05:20:16.921Z,90.0
2018-04-17T05:21:16.963Z,89.7
2018-04-17T05:22:17.229Z,89.2
2018-04-17T05:23:16.483Z,89.0
2018-04-17T05:24:16.746Z,88.6
2018-04-17T05:25:17.010Z,88.7
2018-04-17T05:26:16.271Z,88.7
2018-04-17T05:27:16.548Z,88.5
2018-04-17T05:28:16.808Z,88.5
2018-04-17T05:29:17.070Z,88.5
2018-04-17T05:30:16.356Z,88.4
2018-04-17T05:31:16.389Z,88.1
2018-04-17T05:32:16.648Z,88.2
2018-04-17T05:33:16.912Z,88.0
2018-04-17T05:34:17.273Z,87.5
2018-04-17T05:35:16.621Z,86.9
2018-04-17T05:36:16.909Z,86.5
2018-04-17T05:37:17.179Z,86.7
2018-04-17T05:38:16.444Z,86.7
2018-04-17T05:39:16.711Z,87.0
2018-04-17T05:40:16.980Z,87.3
2018-04-17T05:41:17.024Z,87.5
2018-04-17T05:42:16.279Z,87.7
2018-04-17T05:43:16.541Z,88.1
2018-04-17T05:44:16.811Z,88.2
2018-04-17T05:45:17.067Z,88.1
2018-04-17T05:46:16.326Z,87.9
2018-04-17T05:47:16.591Z,87.9
2018-04-17T05:48:16.849Z,87.8
2018-04-17T05:49:17.106Z,87.6
2018-04-17T05:50:16.550Z,87.5
2018-04-17T05:51:16.405Z,87.7
2018-04-17T05:52:16.674Z,87.0
2018-04-17T05:53:16.939Z,87.0
2018-04-17T05:54:17.191Z,86.8
2018-04-17T05:55:16.447Z,86.3
2018-04-17T05:56:16.708Z,86.7
2018-04-17T05:57:16.980Z,86.0
2018-04-17T05:58:17.254Z,86.0
2018-04-17T05:59:16.514Z,85.7
2018-04-17T06:00:16.777Z,85.4
2018-04-17T06:01:16.832Z,85.7
2018-04-17T06:02:17.119Z,85.2
2018-04-17T06:03:16.375Z,84.8
2018-04-17T06:04:16.642Z,84.2
2018-04-17T06:05:17.114Z,83.9
2018-04-17T06:06:16.443Z,84.0
2018-04-17T06:07:16.702Z,83.7
2018-04-17T06:08:16.960Z,83.9
2018-04-17T06:09:17.489Z,84.3
2018-04-17T06:10:16.775Z,84.3
2018-04-17T06:11:16.796Z,84.0
2018-04-17T06:12:17.063Z,83.8
2018-04-17T06:13:16.324Z,83.5
2018-04-17T06:14:16.591Z,83.0
2018-04-17T06:15:16.855Z,82.6
2018-04-17T06:16:17.126Z,82.4
2018-04-17T06:17:16.401Z,81.8
2018-04-17T06:18:16.664Z,82.3
2018-04-17T06:19:16.939Z,82.7
2018-04-17T06:20:17.207Z,81.8
2018-04-17T06:21:17.239Z,81.3
2018-04-17T06:22:16.503Z,81.0
2018-04-17T06:23:16.826Z,81.2
2018-04-17T06:24:17.100Z,81.5
2018-04-17T06:25:16.358Z,81.5
2018-04-17T06:26:16.615Z,81.0
2018-04-17T06:27:16.875Z,80.4
2018-04-17T06:28:17.143Z,80.3
2018-04-17T06:29:16.410Z,80.2
2018-04-17T06:30:16.680Z,79.8
2018-04-17T06:31:16.834Z,80.7
2018-04-17T06:32:17.095Z,79.9
2018-04-17T06:33:16.354Z,80.4
2018-04-17T06:34:16.621Z,80.5
2018-04-17T06:35:16.877Z,80.3
2018-04-17T06:36:17.143Z,79.2
2018-04-17T06:37:16.403Z,78.9
2018-04-17T06:38:16.661Z,78.4
2018-04-17T06:39:16.938Z,77.6
2018-04-17T06:40:17.204Z,77.5
2018-04-17T06:41:17.240Z,77.0
2018-04-17T06:42:16.502Z,77.2
2018-04-17T06:43:16.757Z,78.3
2018-04-17T06:44:17.023Z,78.7
2018-04-17T06:45:16.291Z,77.0
2018-04-17T06:46:16.543Z,76.3
2018-04-17T06:47:16.892Z,76.4
2018-04-17T06:48:17.167Z,75.3
2018-04-17T06:49:16.431Z,75.0
2018-04-17T06:50:16.694Z,74.5
2018-04-17T06:51:16.752Z,74.0
2018-04-17T06:52:17.011Z,74.2
2018-04-17T06:53:16.273Z,74.0
2018-04-17T06:54:16.523Z,74.0
2018-04-17T06:55:16.786Z,73.7
2018-04-17T06:56:17.047Z,73.5
2018-04-17T06:57:16.314Z,73.3
2018-04-17T06:58:16.576Z,74.2
2018-04-17T06:59:16.828Z,74.5
2018-04-17T07:00:17.143Z,73.2
2018-04-17T07:01:17.165Z,72.9
2018-04-17T07:02:16.427Z,73.1
2018-04-17T07:03:16.697Z,74.2
2018-04-17T07:04:16.961Z,73.5
2018-04-17T07:05:17.300Z,72.5
2018-04-17T07:06:16.565Z,71.8
2018-04-17T07:07:16.826Z,72.5
2018-04-17T07:08:17.084Z,72.0
2018-04-17T07:09:16.351Z,71.0
2018-04-17T07:10:16.615Z,71.5
2018-04-17T07:11:16.658Z,72.6
2018-04-17T07:12:16.934Z,72.4
2018-04-17T07:13:17.199Z,71.9
2018-04-17T07:14:16.460Z,70.7
2018-04-17T07:15:16.732Z,70.4
2018-04-17T07:16:16.988Z,70.0
2018-04-17T07:17:16.250Z,69.3
2018-04-17T07:18:16.510Z,69.2
2018-04-17T07:19:16.768Z,68.1
2018-04-17T07:20:17.060Z,67.8
2018-04-17T07:21:17.087Z,67.8
2018-04-17T07:22:16.351Z,67.2
2018-04-17T07:23:16.614Z,67.1
2018-04-17T07:24:16.877Z,66.0
2018-04-17T07:25:17.132Z,67.3
2018-04-17T07:26:16.390Z,67.8
2018-04-17T07:27:16.658Z,67.3
2018-04-17T07:28:16.918Z,66.1
2018-04-17T07:29:17.184Z,65.0
2018-04-17T07:30:16.445Z,65.0
2018-04-17T07:31:16.501Z,64.2
2018-04-17T07:32:16.773Z,63.9
2018-04-17T07:33:17.035Z,63.9
2018-04-17T07:34:16.304Z,64.5
2018-04-17T07:35:16.587Z,63.3
2018-04-17T07:36:16.844Z,63.5
2018-04-17T07:37:17.104Z,64.5
2018-04-17T07:38:16.375Z,64.0
2018-04-17T07:39:16.638Z,63.9
2018-04-17T07:40:16.913Z,63.4
2018-04-17T07:41:16.955Z,62.9
2018-04-17T07:42:17.224Z,61.0
2018-04-17T07:43:16.496Z,61.0
2018-04-17T07:44:16.756Z,60.8
2018-04-17T07:45:17.014Z,60.0
2018-04-17T07:46:16.272Z,59.0
2018-04-17T07:47:16.546Z,58.9
2018-04-17T07:48:16.803Z,58.6
2018-04-17T07:49:17.057Z,59.1
2018-04-17T07:50:16.322Z,59.1
2018-04-17T07:51:16.377Z,59.6
2018-04-17T07:52:16.632Z,60.1
2018-04-17T07:53:16.888Z,59.7
2018-04-17T07:54:17.154Z,58.5
2018-04-17T07:55:16.422Z,57.0
2018-04-17T07:56:16.682Z,56.9
2018-04-17T07:57:16.942Z,56.5
2018-04-17T07:58:17.216Z,55.8
2018-04-17T07:59:16.474Z,55.3
2018-04-17T08:00:16.748Z,54.8
2018-04-17T08:01:16.793Z,55.0
2018-04-17T08:02:17.062Z,55.0
2018-04-17T08:03:16.322Z,55.0
2018-04-17T08:04:16.597Z,54.4
2018-04-17T08:05:16.858Z,54.4
2018-04-17T08:06:17.120Z,53.4
2018-04-17T08:07:16.389Z,53.9
2018-04-17T08:08:16.719Z,53.1
2018-04-17T08:09:16.984Z,52.9
2018-04-17T08:10:17.264Z,53.2
2018-04-17T08:11:16.305Z,53.4
2018-04-17T08:12:16.564Z,52.6
2018-04-17T08:13:16.839Z,52.2
2018-04-17T08:14:17.097Z,52.0
2018-04-17T08:15:16.368Z,51.3
2018-04-17T08:16:16.634Z,51.5
2018-04-17T08:17:16.903Z,51.1
2018-04-17T08:18:17.168Z,50.5
2018-04-17T08:19:16.431Z,50.9
2018-04-17T08:20:16.698Z,50.9
2018-04-17T08:21:16.741Z,51.6
2018-04-17T08:22:17.015Z,50.9
2018-04-17T08:23:16.280Z,50.5
2018-04-17T08:24:16.534Z,49.4
2018-04-17T08:25:16.815Z,49.3
2018-04-17T08:26:17.108Z,49.2
2018-04-17T08:27:16.379Z,48.0
2018-04-17T08:28:16.646Z,49.3
2018-04-17T08:29:16.906Z,48.8
2018-04-17T08:30:17.194Z,49.3
2018-04-17T08:31:17.234Z,49.5
2018-04-17T08:32:16.469Z,48.8
2018-04-17T08:33:16.747Z,48.4
2018-04-17T08:34:17.008Z,47.8
2018-04-17T08:35:16.275Z,48.1
2018-04-17T08:36:16.545Z,47.2
2018-04-17T08:37:16.808Z,46.9
2018-04-17T08:38:17.071Z,46.4
2018-04-17T08:39:16.327Z,46.4
2018-04-17T08:40:16.601Z,46.4
2018-04-17T08:41:16.655Z,46.4
2018-04-17T08:42:17.176Z,46.8
2018-04-17T08:43:16.446Z,47.2
2018-04-17T08:44:16.714Z,46.2
2018-04-17T08:45:16.985Z,45.9
2018-04-17T08:46:17.276Z,44.2
2018-04-17T08:47:16.545Z,46.1
2018-04-17T08:48:16.799Z,44.6
2018-04-17T08:49:17.056Z,45.7
2018-04-17T08:50:16.335Z,45.3
2018-04-17T08:51:16.400Z,45.4
2018-04-17T08:52:16.661Z,45.3
2018-04-17T08:53:16.926Z,44.6
2018-04-17T08:54:17.190Z,43.2
2018-04-17T08:55:16.458Z,41.4
2018-04-17T08:56:16.725Z,38.4
2018-04-17T08:57:17.005Z,36.7
2018-04-17T08:58:16.274Z,35.5
2018-04-17T08:59:16.545Z,34.8
2018-04-17T09:00:16.832Z,34.3
2018-04-17T09:01:16.855Z,32.5
2018-04-17T09:02:17.115Z,31.3
2018-04-17T09:03:16.375Z,30.1
2018-04-17T09:04:16.637Z,27.7
2018-04-17T09:05:16.963Z,28.0
2018-04-17T09:06:17.245Z,27.3
2018-04-17T09:07:16.516Z,29.2
2018-04-17T09:08:16.780Z,28.4
2018-04-17T09:09:17.033Z,27.9
2018-04-17T09:10:16.304Z,27.6
2018-04-17T09:11:16.361Z,28.4
2018-04-17T09:12:16.790Z,27.9
2018-04-17T09:13:17.048Z,26.8
2018-04-17T09:14:16.322Z,25.9
2018-04-17T09:15:16.587Z,25.8
2018-04-17T09:16:16.847Z,26.0
2018-04-17T09:17:17.111Z,25.9
2018-04-17T09:18:16.371Z,25.5
2018-04-17T09:19:16.630Z,25.3
2018-04-17T09:20:16.897Z,26.4
2018-04-17T09:21:16.941Z,26.9
2018-04-17T09:22:17.207Z,27.6
2018-04-17T09:23:16.468Z,28.1
2018-04-17T09:24:16.731Z,28.3
2018-04-17T09:25:17.001Z,27.4
2018-04-17T09:26:16.273Z,26.4
2018-04-17T09:27:16.536Z,26.4
2018-04-17T09:28:16.797Z,26.2
2018-04-17T09:29:17.164Z,27.6
2018-04-17T09:30:16.444Z,26.9
2018-04-17T09:31:16.489Z,26.9
2018-04-17T09:32:16.751Z,28.1
2018-04-17T09:33:17.186Z,28.2
2018-04-17T09:34:16.464Z,27.6
2018-04-17T09:35:16.734Z,28.5
2018-04-17T09:36:16.992Z,29.0
2018-04-17T09:37:17.281Z,29.4
2018-04-17T09:38:16.542Z,30.7
2018-04-17T09:39:16.807Z,30.0
2018-04-17T09:40:17.076Z,28.8
2018-04-17T09:41:17.110Z,26.4
2018-04-17T09:42:16.381Z,27.8
2018-04-17T09:43:16.640Z,29.7
2018-04-17T09:44:16.899Z,30.9
2018-04-17T09:45:17.154Z,30.0
2018-04-17T09:46:16.415Z,27.1
2018-04-17T09:47:16.686Z,27.1
2018-04-17T09:48:16.948Z,27.8
2018-04-17T09:49:17.213Z,26.6
2018-04-17T09:50:16.486Z,26.6
2018-04-17T09:51:16.551Z,27.1
2018-04-17T09:52:16.808Z,27.8
2018-04-17T09:53:17.067Z,28.4
2018-04-17T09:54:16.327Z,28.6
2018-04-17T09:55:16.593Z,27.6
2018-04-17T09:56:16.852Z,27.8
2018-04-17T09:57:17.120Z,28.4
2018-04-17T09:58:16.380Z,28.6
2018-04-17T09:59:16.644Z,27.8
2018-04-17T10:00:16.908Z,28.2
2018-04-17T10:01:16.982Z,28.2
2018-04-17T10:02:17.243Z,28.1
2018-04-17T10:03:16.498Z,27.8
2018-04-17T10:04:16.759Z,28.9
2018-04-17T10:05:17.012Z,26.5
2018-04-17T10:06:16.268Z,26.6
2018-04-17T10:07:16.527Z,29.2
2018-04-17T10:08:16.797Z,27.6
2018-04-17T10:09:17.063Z,27.2
2018-04-17T10:10:16.343Z,28.9
2018-04-17T10:11:16.379Z,28.2
2018-04-17T10:12:16.640Z,28.2
2018-04-17T10:13:16.901Z,31.1
2018-04-17T10:14:17.173Z,30.6
2018-04-17T10:15:16.444Z,29.8
2018-04-17T10:16:16.708Z,29.0
2018-04-17T10:17:17.084Z,28.7
2018-04-17T10:18:16.347Z,26.6
2018-04-17T10:19:16.613Z,26.5
2018-04-17T10:20:16.891Z,26.4
2018-04-17T10:21:16.918Z,26.7
2018-04-17T10:22:17.177Z,28.1
2018-04-17T10:23:16.432Z,27.2
2018-04-17T10:24:16.684Z,26.6
2018-04-17T10:25:16.953Z,26.8
2018-04-17T10:26:17.243Z,25.9
2018-04-17T10:27:16.494Z,25.8
2018-04-17T10:28:16.801Z,24.6
2018-04-17T10:29:17.069Z,26.8
2018-04-17T10:30:16.392Z,25.4
2018-04-17T10:31:16.385Z,26.1
2018-04-17T10:32:16.660Z,25.5
2018-04-17T10:33:16.915Z,25.3
2018-04-17T10:34:17.169Z,24.7
2018-04-17T10:35:16.423Z,24.6
2018-04-17T10:36:16.680Z,24.6
2018-04-17T10:37:16.940Z,25.2
2018-04-17T10:38:17.211Z,24.9
2018-04-17T10:39:16.471Z,24.8
2018-04-17T10:40:16.738Z,25.7
2018-04-17T10:41:16.777Z,25.8
2018-04-17T10:42:17.033Z,24.2
2018-04-17T10:43:16.299Z,24.4
2018-04-17T10:44:16.557Z,26.3
2018-04-17T10:45:16.826Z,28.3
2018-04-17T10:46:17.082Z,26.6
2018-04-17T10:47:16.350Z,24.9
2018-04-17T10:48:16.606Z,24.3
2018-04-17T10:49:16.865Z,24.1
2018-04-17T10:50:17.137Z,24.6
2018-04-17T10:51:17.186Z,24.8
2018-04-17T10:52:16.443Z,23.9
2018-04-17T10:53:16.709Z,24.9
2018-04-17T10:54:16.978Z,23.9
2018-04-17T10:55:17.240Z,23.9
2018-04-17T10:56:16.506Z,24.4
2018-04-17T10:57:16.762Z,25.7
2018-04-17T10:58:17.029Z,24.2
2018-04-17T10:59:16.288Z,22.6
2018-04-17T11:00:16.557Z,22.3
2018-04-17T11:01:16.610Z,22.6
2018-04-17T11:02:16.868Z,22.1
2018-04-17T11:03:17.292Z,22.1
2018-04-17T11:04:16.557Z,21.6
2018-04-17T11:05:16.831Z,21.6
2018-04-17T11:06:17.096Z,22.6
2018-04-17T11:07:16.369Z,23.2
2018-04-17T11:08:16.630Z,24.0
2018-04-17T11:09:16.891Z,25.4
2018-04-17T11:10:17.159Z,26.4
2018-04-17T11:11:17.218Z,26.8
2018-04-17T11:12:16.492Z,24.9
2018-04-17T11:13:16.743Z,25.4
2018-04-17T11:14:17.008Z,24.9
2018-04-17T11:15:16.264Z,24.4
2018-04-17T11:16:16.622Z,24.4
2018-04-17T11:17:16.934Z,24.4
2018-04-17T11:18:17.191Z,24.7
2018-04-17T11:19:16.462Z,24.7
2018-04-17T11:20:16.737Z,23.4
2018-04-17T11:21:16.757Z,23.9
2018-04-17T11:22:17.013Z,22.6
2018-04-17T11:23:16.483Z,22.8
2018-04-17T11:24:16.756Z,23.3
2018-04-17T11:25:17.025Z,24.8
2018-04-17T11:26:16.290Z,25.8
2018-04-17T11:27:16.559Z,26.9
2018-04-17T11:28:16.814Z,26.9
2018-04-17T11:29:17.096Z,26.2
2018-04-17T11:30:16.375Z,27.0
2018-04-17T11:31:16.407Z,27.1
2018-04-17T11:32:16.669Z,26.8
2018-04-17T11:33:16.929Z,26.4
2018-04-17T11:34:17.201Z,27.0
2018-04-17T11:35:16.471Z,26.9
2018-04-17T11:36:16.734Z,26.6
2018-04-17T11:37:16.990Z,26.2
2018-04-17T11:38:16.258Z,26.1
2018-04-17T11:39:16.524Z,26.2
2018-04-17T11:40:16.790Z,26.1
2018-04-17T11:41:16.833Z,25.6
2018-04-17T11:42:17.098Z,25.3
2018-04-17T11:43:16.366Z,25.3
2018-04-17T11:44:16.628Z,25.5
2018-04-17T11:45:16.893Z,25.6
2018-04-17T11:46:17.157Z,25.8
2018-04-17T11:47:16.425Z,26.3
2018-04-17T11:48:16.692Z,26.1
2018-04-17T11:49:16.949Z,25.6
2018-04-17T11:50:17.217Z,25.6
2018-04-17T11:51:16.259Z,25.8
2018-04-17T11:52:16.527Z,25.9
2018-04-17T11:53:16.802Z,26.1
2018-04-17T11:54:17.062Z,26.8
2018-04-17T11:55:16.334Z,26.9
2018-04-17T11:56:16.596Z,26.4
2018-04-17T11:57:16.855Z,26.9
2018-04-17T11:58:17.112Z,27.2
2018-04-17T11:59:16.368Z,27.1
2018-04-17T12:00:16.654Z,26.8
2018-04-17T12:01:16.682Z,27.1
2018-04-17T12:02:17.029Z,27.1
2018-04-17T12:03:16.303Z,27.6
2018-04-17T12:04:16.575Z,27.1
2018-04-17T12:05:16.969Z,27.0
2018-04-17T12:06:17.230Z,26.7
2018-04-17T12:07:16.500Z,26.9
2018-04-17T12:08:16.758Z,27.6
2018-04-17T12:09:17.023Z,26.9
2018-04-17T12:10:16.296Z,27.9
2018-04-17T12:11:16.327Z,27.6
2018-04-17T12:12:16.589Z,27.7
2018-04-17T12:13:16.926Z,28.1
2018-04-17T12:14:17.211Z,28.0
2018-04-17T12:15:16.473Z,27.6
2018-04-17T12:16:16.737Z,27.4
2018-04-17T12:17:17.005Z,27.7
2018-04-17T12:18:16.267Z,27.9
2018-04-17T12:19:16.530Z,27.5
2018-04-17T12:20:16.804Z,27.7
2018-04-17T12:21:16.854Z,27.7
2018-04-17T12:22:17.118Z,28.4
2018-04-17T12:23:16.379Z,28.4
2018-04-17T12:24:16.653Z,28.4
2018-04-17T12:25:16.915Z,28.6
2018-04-17T12:26:17.178Z,28.3
2018-04-17T12:27:16.445Z,28.1
2018-04-17T12:28:16.710Z,28.1
2018-04-17T12:29:16.974Z,28.1
2018-04-17T12:30:17.249Z,28.1
2018-04-17T12:31:16.266Z,28.1
2018-04-17T12:32:16.555Z,28.2
2018-04-17T12:33:16.842Z,28.4
2018-04-17T12:34:17.120Z,28.3
2018-04-17T12:35:16.392Z,28.0
2018-04-17T12:36:16.655Z,28.1
2018-04-17T12:37:16.919Z,28.6
2018-04-17T12:38:17.188Z,28.2
2018-04-17T12:39:16.445Z,28.4
2018-04-17T12:40:16.708Z,28.2
2018-04-17T12:41:16.759Z,28.0
2018-04-17T12:42:17.021Z,27.6
2018-04-17T12:43:16.275Z,28.2
2018-04-17T12:44:16.534Z,28.0
2018-04-17T12:45:16.809Z,28.1
2018-04-17T12:46:17.069Z,27.9
2018-04-17T12:47:16.330Z,28.5
2018-04-17T12:48:16.588Z,27.9
2018-04-17T12:49:16.853Z,27.7
2018-04-17T12:50:17.121Z,28.5
2018-04-17T12:51:17.179Z,22.0
2018-04-17T12:52:16.445Z,27.6
2018-04-17T12:53:16.719Z,28.0
2018-04-17T12:54:16.989Z,27.7
2018-04-17T12:55:17.249Z,27.9
2018-04-17T12:56:16.512Z,28.1
2018-04-17T12:57:16.776Z,28.2
2018-04-17T12:58:17.046Z,28.3
2018-04-17T12:59:16.314Z,28.2
2018-04-17T13:00:16.589Z,28.4
2018-04-17T13:01:16.640Z,28.6
2018-04-17T13:02:16.904Z,27.9
2018-04-17T13:03:17.164Z,28.1
2018-04-17T13:04:16.430Z,28.3
2018-04-17T13:05:16.696Z,28.2
2018-04-17T13:06:16.959Z,28.4
2018-04-17T13:07:17.214Z,28.0
2018-04-17T13:08:16.480Z,28.1
2018-04-17T13:09:16.738Z,27.8
2018-04-17T13:10:17.018Z,28.1
2018-04-17T13:11:17.061Z,28.0
2018-04-17T13:12:16.325Z,27.9
2018-04-17T13:13:16.589Z,27.1
2018-04-17T13:14:16.856Z,27.4
2018-04-17T13:15:17.108Z,27.2
2018-04-17T13:16:16.372Z,28.0
2018-04-17T13:17:16.643Z,28.2
2018-04-17T13:18:16.897Z,28.1